createdAt,value
2018-05-27T00:00:16.647Z,90.20
2018-05-27T00:02:44.126Z,90.10
2018-05-27T00:05:11.587Z,90.10
2018-05-27T00:07:39.039Z,90.20
2018-05-27T00:10:06.496Z,90.50
2018-05-27T00:12:33.952Z,90.40
2018-05-27T00:15:01.420Z,90.50
2018-05-27T00:17:28.921Z,90.40
2018-05-27T00:19:56.372Z,90.30
2018-05-27T00:22:23.833Z,90.40
2018-05-27T00:24:51.296Z,90.30
2018-05-27T00:27:18.752Z,90.30
2018-05-27T00:29:46.221Z,90.30
2018-05-27T00:32:13.673Z,90.30
2018-05-27T00:34:41.126Z,90.30
2018-05-27T00:37:08.581Z,90.20
2018-05-27T00:39:36.043Z,90.20
2018-05-27T00:42:03.481Z,90.20
2018-05-27T00:44:30.936Z,90.20
2018-05-27T00:46:58.383Z,90.20
2018-05-27T00:49:25.852Z,90.20
2018-05-27T00:51:53.294Z,90.00
2018-05-27T00:54:21.520Z,90.00
2018-05-27T00:56:48.975Z,90.00
2018-05-27T00:59:16.455Z,89.90
2018-05-27T01:01:43.906Z,90.00
2018-05-27T01:04:11.387Z,90.00
2018-05-27T01:06:39.600Z,89.30
2018-05-27T01:09:07.070Z,89.20
2018-05-27T01:11:34.519Z,89.40
2018-05-27T01:14:01.971Z,89.70
2018-05-27T01:16:29.429Z,89.70
2018-05-27T01:18:56.900Z,89.80
2018-05-27T01:21:27.386Z,90.00
2018-05-27T01:23:54.847Z,90.20
2018-05-27T01:26:22.299Z,90.30
2018-05-27T01:28:50.519Z,90.20
2018-05-27T01:31:17.981Z,90.20
2018-05-27T01:33:45.442Z,90.20
2018-05-27T01:36:12.896Z,90.00
2018-05-27T01:38:40.363Z,90.00
2018-05-27T01:41:07.813Z,90.10
2018-05-27T01:43:35.284Z,90.20
2018-05-27T01:46:02.770Z,90.30
2018-05-27T01:48:31.000Z,90.40
2018-05-27T01:51:01.902Z,90.40
2018-05-27T01:53:29.372Z,90.50
2018-05-27T01:55:56.829Z,90.40
2018-05-27T01:58:24.296Z,90.40
2018-05-27T02:00:51.746Z,90.50
2018-05-27T02:03:19.202Z,90.50
2018-05-27T02:05:46.670Z,90.50
2018-05-27T02:08:14.141Z,90.50
2018-05-27T02:10:41.591Z,90.70
2018-05-27T02:13:09.061Z,90.80
2018-05-27T02:15:36.524Z,90.80
2018-05-27T02:18:03.982Z,90.80
2018-05-27T02:20:31.458Z,91.10
2018-05-27T02:22:59.681Z,91.20
2018-05-27T02:25:27.141Z,91.20
2018-05-27T02:27:54.608Z,91.20
2018-05-27T02:30:22.116Z,91.20
2018-05-27T02:32:50.336Z,91.10
2018-05-27T02:35:17.812Z,91.10
2018-05-27T02:37:45.268Z,91.10
2018-05-27T02:40:12.725Z,91.10
2018-05-27T02:42:40.183Z,91.10
2018-05-27T02:45:07.634Z,91.10
2018-05-27T02:47:35.094Z,91.20
2018-05-27T02:50:02.552Z,91.20
2018-05-27T02:52:30.005Z,91.10
2018-05-27T02:54:57.476Z,91.10
2018-05-27T02:57:24.943Z,91.10
2018-05-27T02:59:52.413Z,91.10
2018-05-27T03:02:20.636Z,91.10
2018-05-27T03:04:48.095Z,91.10
2018-05-27T03:07:15.548Z,91.10
2018-05-27T03:09:43.002Z,91.20
2018-05-27T03:12:10.459Z,91.10
2018-05-27T03:14:37.912Z,91.20
2018-05-27T03:17:05.356Z,91.20
2018-05-27T03:19:32.811Z,91.10
2018-05-27T03:22:00.259Z,91.30
2018-05-27T03:24:28.499Z,91.40
2018-05-27T03:26:55.944Z,91.40
2018-05-27T03:29:23.415Z,91.40
2018-05-27T03:31:50.871Z,91.40
2018-05-27T03:34:18.339Z,91.40
2018-05-27T03:36:46.556Z,91.90
2018-05-27T03:39:14.017Z,91.60
2018-05-27T03:41:41.487Z,91.60
2018-05-27T03:44:08.963Z,91.70
2018-05-27T03:46:36.418Z,91.80
2018-05-27T03:49:03.890Z,91.70
2018-05-27T03:51:31.352Z,91.60
2018-05-27T03:53:58.840Z,91.60
2018-05-27T03:56:26.312Z,91.90
2018-05-27T03:58:53.792Z,91.50
2018-05-27T04:01:21.279Z,91.70
2018-05-27T04:04:01.474Z,91.90
2018-05-27T04:06:40.856Z,91.90
2018-05-27T04:09:08.331Z,91.80
2018-05-27T04:11:35.795Z,91.70
2018-05-27T04:14:04.034Z,91.70
2018-05-27T04:16:31.531Z,91.60
2018-05-27T04:18:59.749Z,91.70
2018-05-27T04:21:27.212Z,91.70
2018-05-27T04:23:54.708Z,91.80
2018-05-27T04:26:22.184Z,91.90
2018-05-27T04:28:50.389Z,91.80
2018-05-27T04:31:17.854Z,91.80
2018-05-27T04:33:46.059Z,91.80
2018-05-27T04:36:13.522Z,91.80
2018-05-27T04:38:40.982Z,91.80
2018-05-27T04:41:08.444Z,91.80
2018-05-27T04:43:35.895Z,91.60
2018-05-27T04:46:03.356Z,91.30
2018-05-27T04:48:30.803Z,91.00
2018-05-27T04:50:58.277Z,90.90
2018-05-27T04:53:25.738Z,91.00
2018-05-27T04:55:53.205Z,90.90
2018-05-27T04:58:21.437Z,90.30
2018-05-27T05:00:48.998Z,90.30
2018-05-27T05:03:16.460Z,90.00
2018-05-27T05:05:43.914Z,89.50
2018-05-27T05:08:11.363Z,89.50
2018-05-27T05:10:38.830Z,89.30
2018-05-27T05:13:06.283Z,88.50
2018-05-27T05:15:33.744Z,88.10
2018-05-27T05:18:01.215Z,87.70
2018-05-27T05:20:28.680Z,87.00
2018-05-27T05:22:56.130Z,86.30
2018-05-27T05:25:23.596Z,86.40
2018-05-27T05:27:51.040Z,85.60
2018-05-27T05:30:18.496Z,85.20
2018-05-27T05:32:45.941Z,82.80
2018-05-27T05:35:13.407Z,83.60
2018-05-27T05:37:40.917Z,83.20
2018-05-27T05:40:08.373Z,81.80
2018-05-27T05:42:35.855Z,80.60
2018-05-27T05:45:03.331Z,81.00
2018-05-27T05:47:30.845Z,80.80
2018-05-27T05:49:58.327Z,79.80
2018-05-27T05:52:25.792Z,79.90
2018-05-27T05:54:53.258Z,80.20
2018-05-27T05:57:21.561Z,79.30
2018-05-27T05:59:49.023Z,79.20
2018-05-27T06:02:16.490Z,78.30
2018-05-27T06:04:44.729Z,77.80
2018-05-27T06:07:12.203Z,77.80
2018-05-27T06:09:39.667Z,77.70
2018-05-27T06:12:07.138Z,77.20
2018-05-27T06:14:35.370Z,76.20
2018-05-27T06:17:02.839Z,76.20
2018-05-27T06:19:30.300Z,75.90
2018-05-27T06:21:57.766Z,74.90
2018-05-27T06:24:25.222Z,74.60
2018-05-27T06:26:52.684Z,74.30
2018-05-27T06:29:21.128Z,74.30
2018-05-27T06:31:51.421Z,74.90
2018-05-27T06:37:12.511Z,73.70
2018-05-27T06:39:41.798Z,72.30
2018-05-27T06:42:16.082Z,72.30
2018-05-27T06:44:43.623Z,73.10
2018-05-27T06:50:15.585Z,71.70
2018-05-27T06:52:43.854Z,70.30
2018-05-27T06:55:17.098Z,70.20
2018-05-27T06:57:44.563Z,69.30
2018-05-27T07:00:12.074Z,69.30
2018-05-27T07:02:40.313Z,67.40
2018-05-27T07:05:07.772Z,67.40
2018-05-27T07:07:35.267Z,65.70
2018-05-27T07:10:03.582Z,63.10
2018-05-27T07:12:31.079Z,62.90
2018-05-27T07:14:58.529Z,60.40
2018-05-27T07:17:25.995Z,60.00
2018-05-27T07:19:53.440Z,59.10
2018-05-27T07:22:20.895Z,60.10
2018-05-27T07:24:48.399Z,60.40
2018-05-27T07:27:16.045Z,59.50
2018-05-27T07:29:43.549Z,58.00
2018-05-27T07:32:11.081Z,56.80
2018-05-27T07:34:39.289Z,56.90
2018-05-27T07:37:07.072Z,56.90
2018-05-27T07:39:36.281Z,55.70
2018-05-27T07:42:03.801Z,55.60
2018-05-27T07:44:32.084Z,51.70
2018-05-27T07:46:59.588Z,51.60
2018-05-27T07:49:27.862Z,50.40
2018-05-27T07:51:55.401Z,50.30
2018-05-27T07:54:22.983Z,49.80
2018-05-27T07:56:51.264Z,48.20
2018-05-27T07:59:19.515Z,48.10
2018-05-27T08:01:46.997Z,48.00
2018-05-27T08:04:15.240Z,46.90
2018-05-27T08:06:42.736Z,46.80
2018-05-27T08:58:54.043Z,45.10
2018-05-27T09:01:22.305Z,45.20
2018-05-27T09:03:49.766Z,45.20
2018-05-27T09:06:17.273Z,42.70
2018-05-27T09:08:44.735Z,42.50
2018-05-27T09:11:12.187Z,38.80
2018-05-27T09:13:39.660Z,36.70
2018-05-27T09:16:07.143Z,35.10
2018-05-27T09:18:34.632Z,33.10
2018-05-27T09:21:02.101Z,32.30
2018-05-27T09:23:29.588Z,31.40
2018-05-27T09:25:57.040Z,33.60
2018-05-27T09:28:24.601Z,34.30
2018-05-27T09:30:52.123Z,33.70
2018-05-27T09:33:20.360Z,33.90
2018-05-27T09:35:47.858Z,33.90
2018-05-27T09:38:15.345Z,36.60
2018-05-27T09:40:42.810Z,37.00
2018-05-27T09:43:10.279Z,36.80
2018-05-27T09:45:37.755Z,35.10
2018-05-27T09:48:05.269Z,36.80
2018-05-27T09:50:32.916Z,36.80
2018-05-27T09:53:01.105Z,33.10
2018-05-27T09:55:28.565Z,33.70
2018-05-27T09:57:56.060Z,32.10
2018-05-27T10:00:23.515Z,30.80
2018-05-27T10:02:50.984Z,31.80
2018-05-27T10:05:19.310Z,30.40
2018-05-27T10:07:50.572Z,30.30
2018-05-27T10:10:18.072Z,30.80
2018-05-27T10:12:46.372Z,32.20
2018-05-27T10:15:14.080Z,32.20
2018-05-27T10:17:41.645Z,30.00
2018-05-27T10:20:09.188Z,30.50
2018-05-27T10:22:36.689Z,33.10
2018-05-27T10:25:05.374Z,34.40
2018-05-27T10:27:32.947Z,34.30
2018-05-27T10:30:00.423Z,31.10
2018-05-27T10:32:27.909Z,33.50
2018-05-27T10:34:55.368Z,34.70
2018-05-27T10:37:22.819Z,37.10
2018-05-27T10:39:50.289Z,36.80
2018-05-27T10:42:17.754Z,36.10
2018-05-27T10:44:45.220Z,35.40
2018-05-27T10:47:12.664Z,36.30
2018-05-27T10:49:40.135Z,35.30
2018-05-27T10:52:07.612Z,38.70
2018-05-27T10:54:35.843Z,35.20
2018-05-27T10:57:03.301Z,35.20
2018-05-27T10:59:30.776Z,35.60
2018-05-27T11:01:58.242Z,35.80
2018-05-27T11:04:25.720Z,33.40
2018-05-27T11:06:53.976Z,29.70
2018-05-27T11:09:21.437Z,29.60
2018-05-27T11:11:48.897Z,28.40
2018-05-27T11:14:17.148Z,30.00
2018-05-27T11:16:44.687Z,30.10
2018-05-27T11:19:12.136Z,28.70
2018-05-27T11:21:40.366Z,31.30
2018-05-27T11:24:08.607Z,29.50
2018-05-27T11:26:36.097Z,29.50
2018-05-27T11:29:04.321Z,30.00
2018-05-27T11:31:32.839Z,30.00
2018-05-27T11:34:00.572Z,30.60
2018-05-27T11:36:28.619Z,29.10
2018-05-27T11:38:56.221Z,29.70
2018-05-27T11:41:24.052Z,27.40
2018-05-27T11:43:51.696Z,28.50
2018-05-27T11:46:20.518Z,31.80
2018-05-27T11:48:50.257Z,31.00
2018-05-27T11:51:20.389Z,30.90
2018-05-27T11:53:48.093Z,30.20
2018-05-27T11:56:17.391Z,30.50
2018-05-27T11:58:45.214Z,30.50
2018-05-27T12:01:14.830Z,29.80
2018-05-27T12:03:42.435Z,30.10
2018-05-27T12:06:10.021Z,30.30
2018-05-27T12:08:38.335Z,29.80
2018-05-27T12:11:06.583Z,30.40
2018-05-27T12:13:34.050Z,30.30
2018-05-27T12:16:01.639Z,30.80
2018-05-27T12:18:29.204Z,31.30
2018-05-27T12:20:56.681Z,34.30
2018-05-27T12:23:24.936Z,30.90
2018-05-27T12:25:52.410Z,30.80
2018-05-27T12:28:19.857Z,31.20
2018-05-27T12:30:47.334Z,30.90
2018-05-27T12:33:14.791Z,30.70
2018-05-27T12:35:42.947Z,31.70
2018-05-27T12:38:10.556Z,29.60
2018-05-27T12:40:38.181Z,30.00
2018-05-27T12:43:06.781Z,32.50
2018-05-27T12:45:34.520Z,32.50
2018-05-27T12:48:03.713Z,32.00
2018-05-27T12:50:31.615Z,31.90
2018-05-27T12:52:59.917Z,32.90
2018-05-27T12:55:27.517Z,32.80
2018-05-27T12:57:55.067Z,33.20
2018-05-27T13:00:22.529Z,32.40
2018-05-27T13:02:50.032Z,33.20
2018-05-27T13:05:17.790Z,32.90
2018-05-27T13:07:45.364Z,34.60
2018-05-27T13:10:13.330Z,33.50
2018-05-27T13:12:41.664Z,35.60
2018-05-27T13:15:09.443Z,35.60
2018-05-27T13:17:37.831Z,33.60
2018-05-27T13:20:05.299Z,33.50
2018-05-27T13:22:32.792Z,34.30
2018-05-27T13:25:01.027Z,33.00
2018-05-27T13:27:28.591Z,32.90
2018-05-27T13:29:56.711Z,33.90
2018-05-27T13:32:26.126Z,34.90
2018-05-27T13:34:53.904Z,36.40
2018-05-27T13:37:21.971Z,37.00
2018-05-27T13:39:51.197Z,35.00
2018-05-27T13:42:19.828Z,31.70
2018-05-27T13:44:47.623Z,31.60
2018-05-27T13:47:15.397Z,29.90
2018-05-27T13:49:43.465Z,29.10
2018-05-27T13:52:11.097Z,28.20
2018-05-27T13:54:39.350Z,28.60
2018-05-27T13:57:06.829Z,28.60
2018-05-27T13:59:35.965Z,28.70
2018-05-27T14:02:03.798Z,28.20
2018-05-27T14:04:31.386Z,29.30
2018-05-27T14:06:59.173Z,29.50
2018-05-27T14:09:26.778Z,29.90
2018-05-27T14:11:54.549Z,30.70
2018-05-27T14:14:22.040Z,33.00
2018-05-27T14:16:50.624Z,32.70
2018-05-27T14:19:18.858Z,36.00
2018-05-27T14:21:47.897Z,33.90
2018-05-27T14:24:15.891Z,33.70
2018-05-27T14:26:43.602Z,34.20
2018-05-27T14:29:12.384Z,34.50
2018-05-27T14:31:42.161Z,34.40
2018-05-27T14:34:09.729Z,33.40
2018-05-27T14:36:38.173Z,32.80
2018-05-27T14:39:07.173Z,32.50
2018-05-27T14:41:35.096Z,32.50
2018-05-27T14:44:02.580Z,31.80
2018-05-27T14:46:30.181Z,33.20
2018-05-27T14:48:58.188Z,33.80
2018-05-27T14:51:26.581Z,30.20
2018-05-27T14:53:54.219Z,30.20
2018-05-27T14:56:22.461Z,31.40
2018-05-27T14:58:50.039Z,33.70
2018-05-27T15:01:19.459Z,33.70
2018-05-27T15:03:47.429Z,33.10
2018-05-27T15:06:14.976Z,33.70
2018-05-27T15:08:43.476Z,35.50
2018-05-27T15:11:11.093Z,35.50
2018-05-27T15:13:39.028Z,34.40
2018-05-27T15:16:06.704Z,33.70
2018-05-27T15:18:34.760Z,35.10
2018-05-27T15:21:02.355Z,35.50
2018-05-27T15:23:29.889Z,34.90
2018-05-27T15:25:57.360Z,37.70
2018-05-27T15:28:25.864Z,37.60
2018-05-27T15:30:54.392Z,38.40
2018-05-27T15:33:21.867Z,38.60
2018-05-27T15:35:49.367Z,39.10
2018-05-27T15:38:16.884Z,40.00
2018-05-27T15:40:44.364Z,39.80
2018-05-27T15:43:13.358Z,41.80
2018-05-27T15:45:40.880Z,41.80
2018-05-27T15:51:14.642Z,40.70
2018-05-27T15:53:42.144Z,39.20
2018-05-27T15:56:09.631Z,39.10
2018-05-27T15:58:37.123Z,37.70
2018-05-27T16:01:04.624Z,37.40
2018-05-27T16:03:32.103Z,38.80
2018-05-27T16:05:59.639Z,38.20
2018-05-27T16:08:27.195Z,37.50
2018-05-27T16:10:54.695Z,38.30
2018-05-27T16:13:22.187Z,37.80
2018-05-27T16:15:50.446Z,37.10
2018-05-27T16:18:18.735Z,37.80
2018-05-27T16:20:47.989Z,39.00
2018-05-27T16:23:15.529Z,38.80
2018-05-27T16:25:43.033Z,36.50
2018-05-27T16:28:10.672Z,36.60
2018-05-27T16:30:38.193Z,37.00
2018-05-27T16:33:05.660Z,36.80
2018-05-27T16:35:33.125Z,37.50
2018-05-27T16:38:00.610Z,37.90
2018-05-27T16:40:28.084Z,37.50
2018-05-27T16:42:55.561Z,35.60
2018-05-27T16:45:23.798Z,38.50
2018-05-27T16:47:51.282Z,38.00
2018-05-27T16:50:19.814Z,39.30
2018-05-27T16:52:47.530Z,39.60
2018-05-27T16:55:14.986Z,39.80
2018-05-27T16:57:43.265Z,39.60
2018-05-27T17:00:11.857Z,40.20
2018-05-27T17:02:39.306Z,40.10
2018-05-27T17:05:07.548Z,40.80
2018-05-27T17:07:35.018Z,40.60
2018-05-27T17:10:02.501Z,43.20
2018-05-27T17:12:30.787Z,42.00
2018-05-27T17:14:58.295Z,42.10
2018-05-27T17:17:25.814Z,42.00
2018-05-27T17:19:53.289Z,42.50
2018-05-27T17:22:20.785Z,43.50
2018-05-27T17:24:55.292Z,42.90
2018-05-27T17:27:23.079Z,43.90
2018-05-27T17:29:50.569Z,42.70
2018-05-27T17:32:18.048Z,43.40
2018-05-27T17:34:45.532Z,43.70
2018-05-27T17:37:13.040Z,46.80
2018-05-27T17:39:40.526Z,45.00
2018-05-27T17:42:07.986Z,45.20
2018-05-27T17:44:36.230Z,45.10
2018-05-27T17:47:04.502Z,46.50
2018-05-27T17:49:32.057Z,46.40
2018-05-27T17:52:00.323Z,44.20
2018-05-27T17:54:28.590Z,45.70
2018-05-27T17:56:56.054Z,45.60
2018-05-27T17:59:24.302Z,44.80
2018-05-27T18:01:51.781Z,45.20
2018-05-27T18:04:19.320Z,47.10
2018-05-27T18:06:48.889Z,47.60
2018-05-27T18:09:16.341Z,48.10
2018-05-27T18:11:43.806Z,48.30
2018-05-27T18:14:11.311Z,49.10
2018-05-27T18:16:38.777Z,49.90
2018-05-27T18:19:06.565Z,50.60
2018-05-27T18:21:34.973Z,51.40
2018-05-27T18:24:02.536Z,51.40
2018-05-27T18:26:30.250Z,51.50
2018-05-27T18:29:17.968Z,52.70
2018-05-27T18:31:45.509Z,52.20
2018-05-27T18:34:13.001Z,53.00
2018-05-27T18:36:41.260Z,53.80
2018-05-27T18:39:08.768Z,53.80
2018-05-27T18:41:36.299Z,54.30
2018-05-27T18:44:04.564Z,55.40
2018-05-27T18:46:32.033Z,55.40
2018-05-27T18:49:00.270Z,56.80
2018-05-27T18:51:30.828Z,56.80
2018-05-27T18:53:59.379Z,55.30
2018-05-27T18:56:27.916Z,55.90
2018-05-27T18:58:56.463Z,55.60
2018-05-27T19:01:25.115Z,57.20
2018-05-27T19:04:01.604Z,57.70
2018-05-27T19:06:31.000Z,57.90
2018-05-27T19:09:08.941Z,58.70
2018-05-27T19:11:46.789Z,58.60
2018-05-27T19:14:14.702Z,59.20
2018-05-27T19:16:58.120Z,60.40
2018-05-27T19:19:29.715Z,60.50
2018-05-27T19:21:58.559Z,60.50
2018-05-27T19:24:26.955Z,61.50
2018-05-27T19:26:55.280Z,62.70
2018-05-27T19:29:52.691Z,63.50
2018-05-27T19:32:21.153Z,63.50
2018-05-27T19:35:13.975Z,64.30
2018-05-27T19:37:42.638Z,64.90
2018-05-27T19:40:10.235Z,65.20
2018-05-27T19:42:37.771Z,65.70
2018-05-27T19:45:05.239Z,66.40
2018-05-27T19:47:32.688Z,67.00
2018-05-27T19:50:00.161Z,68.40
2018-05-27T19:52:27.638Z,69.00
2018-05-27T19:54:55.108Z,69.20
2018-05-27T19:57:22.580Z,70.00
2018-05-27T19:59:50.800Z,70.30
2018-05-27T20:02:18.231Z,70.20
2018-05-27T20:04:45.684Z,71.10
2018-05-27T20:07:13.120Z,71.40
2018-05-27T20:09:41.339Z,72.00
2018-05-27T20:12:08.790Z,71.90
2018-05-27T20:14:36.248Z,72.10
2018-05-27T20:17:03.695Z,72.30
2018-05-27T20:19:31.150Z,72.90
2018-05-27T20:21:58.588Z,72.80
2018-05-27T20:24:26.803Z,73.60
2018-05-27T20:26:54.254Z,73.60
2018-05-27T20:29:21.700Z,74.00
2018-05-27T20:31:49.131Z,74.20
2018-05-27T20:34:17.346Z,75.20
2018-05-27T20:36:44.792Z,75.20
2018-05-27T20:39:12.246Z,75.20
2018-05-27T20:41:39.684Z,75.90
2018-05-27T20:44:07.890Z,76.20
2018-05-27T20:46:36.095Z,76.40
2018-05-27T20:49:03.547Z,76.40
2018-05-27T20:51:30.986Z,76.80
2018-05-27T20:53:58.439Z,78.10
2018-05-27T20:56:25.890Z,77.90
2018-05-27T20:58:53.340Z,78.10
2018-05-27T21:01:20.775Z,78.10
2018-05-27T21:03:48.223Z,78.10
2018-05-27T21:06:16.431Z,79.00
2018-05-27T21:08:43.886Z,79.00
2018-05-27T21:11:11.335Z,79.00
2018-05-27T21:13:38.780Z,79.30
2018-05-27T21:16:06.220Z,80.00
2018-05-27T21:18:34.431Z,80.50
2018-05-27T21:21:01.870Z,80.50
2018-05-27T21:23:29.311Z,80.70
2018-05-27T21:25:57.528Z,81.50
2018-05-27T21:28:24.972Z,81.40
2018-05-27T21:30:52.433Z,82.10
2018-05-27T21:33:19.870Z,82.50
2018-05-27T21:35:47.319Z,82.90
2018-05-27T21:38:15.523Z,83.70
2018-05-27T21:40:42.973Z,83.70
2018-05-27T21:43:10.407Z,84.50
2018-05-27T21:45:37.850Z,84.70
2018-05-27T21:48:06.063Z,85.10
2018-05-27T21:50:33.522Z,85.10
2018-05-27T21:53:00.959Z,85.10
2018-05-27T21:55:28.402Z,85.00
2018-05-27T21:57:56.605Z,85.40
2018-05-27T22:00:24.047Z,85.30
2018-05-27T22:02:51.490Z,85.40
2018-05-27T22:05:19.712Z,85.40
2018-05-27T22:07:47.153Z,85.40
2018-05-27T22:10:14.603Z,85.30
2018-05-27T22:12:42.038Z,84.90
2018-05-27T22:15:10.250Z,85.40
2018-05-27T22:17:37.695Z,85.40
2018-05-27T22:20:05.144Z,85.60
2018-05-27T22:22:32.575Z,86.00
2018-05-27T22:25:00.795Z,85.90
2018-05-27T22:27:28.240Z,85.90
2018-05-27T22:29:55.682Z,85.90
2018-05-27T22:32:23.127Z,86.40
2018-05-27T22:34:51.339Z,86.40
2018-05-27T22:37:18.785Z,86.30
2018-05-27T22:39:46.231Z,86.30
2018-05-27T22:42:13.671Z,87.00
2018-05-27T22:44:41.884Z,87.80
2018-05-27T22:47:09.315Z,87.70
2018-05-27T22:49:36.765Z,87.80
2018-05-27T22:52:04.976Z,88.00
2018-05-27T22:54:32.423Z,88.00
2018-05-27T22:56:59.854Z,87.90
2018-05-27T22:59:27.302Z,87.60
2018-05-27T23:01:55.515Z,88.30
2018-05-27T23:04:22.963Z,88.30
2018-05-27T23:06:50.407Z,88.70
2018-05-27T23:09:17.864Z,88.40
2018-05-27T23:11:45.302Z,88.20
2018-05-27T23:14:13.515Z,89.00
2018-05-27T23:16:40.963Z,89.00
2018-05-27T23:19:08.427Z,88.70
2018-05-27T23:21:35.878Z,88.20
2018-05-27T23:24:03.322Z,88.00
2018-05-27T23:26:30.765Z,88.30
2018-05-27T23:28:58.974Z,88.70
2018-05-27T23:31:26.427Z,88.70
2018-05-27T23:33:53.866Z,88.30
2018-05-27T23:36:21.319Z,88.20
2018-05-27T23:38:48.758Z,88.40
2018-05-27T23:41:16.972Z,88.20
2018-05-27T23:43:44.415Z,88.20
2018-05-27T23:46:11.868Z,88.40
2018-05-27T23:48:39.315Z,88.70
2018-05-27T23:51:06.762Z,89.00
2018-05-27T23:53:34.971Z,90.10
2018-05-27T23:56:02.428Z,90.10
2018-05-27T23:58:29.866Z,90.00
